createdAt,value
2019-04-25T00:01:01.215Z,1000.46
2019-04-25T00:02:01.732Z,1000.46
2019-04-25T00:03:01.203Z,1000.45
2019-04-25T00:04:01.905Z,1000.50
2019-04-25T00:05:01.354Z,1000.52
2019-04-25T00:05:59.960Z,1000.46
2019-04-25T00:06:59.998Z,1000.44
2019-04-25T00:08:01.442Z,1000.41
2019-04-25T00:09:00.021Z,1000.40
2019-04-25T00:10:01.498Z,1000.46
2019-04-25T00:11:01.622Z,1000.41
2019-04-25T00:12:00.078Z,1000.40
2019-04-25T00:13:01.667Z,1000.33
2019-04-25T00:14:01.572Z,1000.28
2019-04-25T00:15:01.443Z,1000.30
2019-04-25T00:16:01.729Z,1000.32
2019-04-25T00:17:01.638Z,1000.25
2019-04-25T00:18:00.188Z,1000.27
2019-04-25T00:19:01.748Z,1000.29
2019-04-25T00:20:01.606Z,1000.30
2019-04-25T00:21:01.368Z,1000.24
2019-04-25T00:22:01.871Z,1000.18
2019-04-25T00:23:01.902Z,1000.16
2019-04-25T00:24:00.304Z,1000.10
2019-04-25T00:25:12.942Z,1000.07
2019-04-25T00:26:01.348Z,1000.05
2019-04-25T00:27:01.802Z,1000.04
2019-04-25T00:28:01.824Z,1000.12
2019-04-25T00:29:00.394Z,1000.17
2019-04-25T00:30:01.647Z,1000.24
2019-04-25T00:31:02.027Z,1000.34
2019-04-25T00:32:01.682Z,1000.39
2019-04-25T00:33:02.025Z,1000.45
2019-04-25T00:34:02.088Z,1000.42
2019-04-25T00:35:01.917Z,1000.51
2019-04-25T00:36:02.025Z,1000.59
2019-04-25T00:37:02.333Z,1000.62
2019-04-25T00:38:02.261Z,1000.62
2019-04-25T00:39:01.993Z,1000.62
2019-04-25T00:40:01.514Z,1000.58
2019-04-25T00:41:01.713Z,1000.51
2019-04-25T00:42:02.148Z,1000.52
2019-04-25T00:43:01.581Z,1000.52
2019-04-25T00:44:02.307Z,1000.58
2019-04-25T00:45:02.355Z,1000.62
2019-04-25T00:46:01.528Z,1000.63
2019-04-25T00:47:02.271Z,1000.65
2019-04-25T00:48:03.992Z,1000.67
2019-04-25T00:49:02.434Z,1000.62
2019-04-25T00:50:02.350Z,1000.66
2019-04-25T00:51:01.874Z,1000.65
2019-04-25T00:52:02.039Z,1000.67
2019-04-25T00:53:01.186Z,1000.66
2019-04-25T00:54:02.409Z,1000.65
2019-04-25T00:55:01.872Z,1000.67
2019-04-25T00:56:01.413Z,1000.68
2019-04-25T00:57:02.157Z,1000.69
2019-04-25T00:58:01.353Z,1000.67
2019-04-25T00:59:01.966Z,1000.70
2019-04-25T01:00:01.874Z,1000.76
2019-04-25T01:01:02.056Z,1000.73
2019-04-25T01:02:01.477Z,1000.68
2019-04-25T01:03:01.860Z,1000.68
2019-04-25T01:04:02.330Z,1000.65
2019-04-25T01:05:01.857Z,1000.63
2019-04-25T01:06:03.368Z,1000.63
2019-04-25T01:07:01.492Z,1000.59
2019-04-25T01:08:02.160Z,1000.63
2019-04-25T01:09:01.560Z,1000.68
2019-04-25T01:10:02.464Z,1000.61
2019-04-25T01:11:01.680Z,1000.64
2019-04-25T01:12:03.880Z,1000.59
2019-04-25T01:13:03.061Z,1000.52
2019-04-25T01:14:02.166Z,1000.49
2019-04-25T01:15:01.724Z,1000.46
2019-04-25T01:16:02.165Z,1000.51
2019-04-25T01:17:01.791Z,1000.45
2019-04-25T01:18:01.320Z,1000.48
2019-04-25T01:19:01.312Z,1000.41
2019-04-25T01:20:01.361Z,1000.37
2019-04-25T01:21:01.350Z,1000.32
2019-04-25T01:22:01.367Z,1000.29
2019-04-25T01:23:01.384Z,1000.25
2019-04-25T01:24:01.403Z,1000.26
2019-04-25T01:25:01.426Z,1000.29
2019-04-25T01:26:01.438Z,1000.26
2019-04-25T01:27:01.460Z,1000.26
2019-04-25T01:28:03.154Z,1000.27
2019-04-25T01:29:01.499Z,1000.25
2019-04-25T01:30:01.514Z,1000.18
2019-04-25T01:31:01.536Z,1000.10
2019-04-25T01:32:03.192Z,1000.09
2019-04-25T01:33:01.566Z,1000.00
2019-04-25T01:34:01.589Z,999.99
2019-04-25T01:35:01.606Z,999.97
2019-04-25T01:36:03.269Z,999.99
2019-04-25T01:37:01.639Z,1000.04
2019-04-25T01:38:01.663Z,1000.03
2019-04-25T01:39:01.680Z,1000.05
2019-04-25T01:40:01.699Z,1000.03
2019-04-25T01:41:03.388Z,1000.05
2019-04-25T01:42:01.738Z,1000.07
2019-04-25T01:43:01.756Z,1000.10
2019-04-25T01:44:01.780Z,1000.11
2019-04-25T01:45:01.788Z,1000.17
2019-04-25T01:46:03.370Z,1000.16
2019-04-25T01:47:01.821Z,1000.16
2019-04-25T01:48:03.426Z,1000.18
2019-04-25T01:49:01.857Z,1000.19
2019-04-25T01:50:01.882Z,1000.15
2019-04-25T01:51:01.897Z,1000.17
2019-04-25T01:52:03.442Z,1000.19
2019-04-25T01:53:03.434Z,1000.23
2019-04-25T01:54:01.953Z,1000.28
2019-04-25T01:55:03.476Z,1000.30
2019-04-25T01:56:07.114Z,1000.30
2019-04-25T01:57:02.019Z,1000.32
2019-04-25T01:58:03.761Z,1000.35
2019-04-25T01:59:03.769Z,1000.32
2019-04-25T02:00:03.828Z,1000.32
2019-04-25T02:01:03.153Z,1000.36
2019-04-25T02:02:03.809Z,1000.41
2019-04-25T02:03:04.345Z,1000.48
2019-04-25T02:04:03.555Z,1000.53
2019-04-25T02:05:03.984Z,1000.61
2019-04-25T02:06:04.112Z,1000.64
2019-04-25T02:07:03.625Z,1000.65
2019-04-25T02:08:02.209Z,1000.69
2019-04-25T02:09:03.845Z,1000.68
2019-04-25T02:10:03.718Z,1000.74
2019-04-25T02:11:03.187Z,1000.74
2019-04-25T02:12:04.579Z,1000.79
2019-04-25T02:13:03.813Z,1000.82
2019-04-25T02:14:04.841Z,1000.84
2019-04-25T02:15:05.946Z,1000.86
2019-04-25T02:16:03.403Z,1000.86
2019-04-25T02:17:04.435Z,1000.86
2019-04-25T02:18:03.771Z,1000.85
2019-04-25T02:19:03.968Z,1000.87
2019-04-25T02:20:04.107Z,1000.81
2019-04-25T02:21:04.401Z,1000.84
2019-04-25T02:22:03.967Z,1000.88
2019-04-25T02:23:04.095Z,1000.95
2019-04-25T02:24:04.331Z,1000.96
2019-04-25T02:25:04.433Z,1000.99
2019-04-25T02:26:12.646Z,1001.03
2019-04-25T02:27:04.552Z,1001.05
2019-04-25T02:28:05.514Z,1001.11
2019-04-25T02:29:04.536Z,1001.16
2019-04-25T02:30:04.357Z,1001.21
2019-04-25T02:31:08.143Z,1001.22
2019-04-25T02:32:08.445Z,1001.22
2019-04-25T02:33:08.429Z,1001.25
2019-04-25T02:34:06.188Z,1001.25
2019-04-25T02:35:05.545Z,1001.19
2019-04-25T02:36:08.312Z,1001.18
2019-04-25T02:37:07.126Z,1001.19
2019-04-25T02:38:07.097Z,1001.16
2019-04-25T02:39:08.164Z,1001.17
2019-04-25T02:40:06.675Z,1001.15
2019-04-25T02:41:06.879Z,1001.15
2019-04-25T02:42:06.941Z,1001.18
2019-04-25T02:43:06.588Z,1001.20
2019-04-25T02:44:08.021Z,1001.15
2019-04-25T02:45:06.596Z,1001.14
2019-04-25T02:46:06.500Z,1001.07
2019-04-25T02:47:06.512Z,1001.10
2019-04-25T02:48:05.716Z,1001.10
2019-04-25T02:49:07.177Z,1001.09
2019-04-25T02:50:07.085Z,1001.08
2019-04-25T02:51:05.422Z,1001.04
2019-04-25T02:52:06.937Z,1001.05
2019-04-25T02:53:05.748Z,1000.98
2019-04-25T02:54:06.150Z,1000.96
2019-04-25T02:55:08.095Z,1000.94
2019-04-25T02:56:07.910Z,1000.87
2019-04-25T02:57:06.551Z,1000.87
2019-04-25T02:58:08.115Z,1000.86
2019-04-25T02:59:06.495Z,1000.86
2019-04-25T03:00:05.952Z,1000.85
2019-04-25T03:01:14.312Z,1000.85
2019-04-25T03:02:05.687Z,1000.84
2019-04-25T03:03:05.621Z,1000.89
2019-04-25T03:04:08.573Z,1000.85
2019-04-25T03:05:07.383Z,1000.86
2019-04-25T03:06:06.023Z,1000.83
2019-04-25T03:07:07.427Z,1000.85
2019-04-25T03:08:07.971Z,1000.85
2019-04-25T03:09:05.668Z,1000.82
2019-04-25T03:10:06.128Z,1000.88
2019-04-25T03:11:05.783Z,1000.90
2019-04-25T03:12:05.852Z,1000.92
2019-04-25T03:13:07.963Z,1000.88
2019-04-25T03:14:06.626Z,1000.81
2019-04-25T03:15:06.692Z,1000.85
2019-04-25T03:16:07.677Z,1000.81
2019-04-25T03:17:05.263Z,1000.86
2019-04-25T03:18:05.688Z,1000.88
2019-04-25T03:19:05.114Z,1000.91
2019-04-25T03:20:06.633Z,1000.93
2019-04-25T03:21:06.127Z,1000.92
2019-04-25T03:22:06.840Z,1000.96
2019-04-25T03:23:06.894Z,1000.92
2019-04-25T03:24:09.072Z,1000.91
2019-04-25T03:25:06.362Z,1000.88
2019-04-25T03:26:04.730Z,1000.89
2019-04-25T03:27:05.212Z,1000.96
2019-04-25T03:28:05.002Z,1000.91
2019-04-25T03:29:04.955Z,1000.95
2019-04-25T03:30:06.423Z,1000.94
2019-04-25T03:31:08.581Z,1000.93
2019-04-25T03:32:07.459Z,1000.89
2019-04-25T03:33:09.271Z,1000.89
2019-04-25T03:34:09.481Z,1000.92
2019-04-25T03:35:05.532Z,1000.91
2019-04-25T03:36:05.515Z,1000.93
2019-04-25T03:37:05.280Z,1000.95
2019-04-25T03:38:04.556Z,1000.90
2019-04-25T03:39:05.083Z,1000.94
2019-04-25T03:40:05.689Z,1000.95
2019-04-25T03:41:04.812Z,1000.96
2019-04-25T03:42:05.140Z,1001.00
2019-04-25T03:43:05.078Z,1001.03
2019-04-25T03:44:05.302Z,1001.04
2019-04-25T03:45:05.013Z,1001.02
2019-04-25T03:46:05.010Z,1001.07
2019-04-25T03:47:06.451Z,1001.01
2019-04-25T03:48:05.600Z,1001.04
2019-04-25T03:49:05.038Z,1001.07
2019-04-25T03:50:05.870Z,1001.09
2019-04-25T03:51:05.467Z,1001.06
2019-04-25T03:52:05.257Z,1001.11
2019-04-25T03:53:05.340Z,1001.06
2019-04-25T03:54:06.014Z,1001.11
2019-04-25T03:55:05.080Z,1001.14
2019-04-25T03:56:06.001Z,1001.12
2019-04-25T03:57:05.252Z,1001.14
2019-04-25T03:58:07.535Z,1001.14
2019-04-25T03:59:05.846Z,1001.13
2019-04-25T04:00:06.196Z,1001.13
2019-04-25T04:01:06.971Z,1001.15
2019-04-25T04:02:05.884Z,1001.15
2019-04-25T04:03:06.443Z,1001.12
2019-04-25T04:04:05.706Z,1001.09
2019-04-25T04:05:06.000Z,1001.09
2019-04-25T04:06:06.284Z,1001.06
2019-04-25T04:07:08.342Z,1001.09
2019-04-25T04:08:05.606Z,1001.10
2019-04-25T04:09:05.557Z,1001.14
2019-04-25T04:10:05.363Z,1001.15
2019-04-25T04:11:07.096Z,1001.15
2019-04-25T04:12:05.551Z,1001.14
2019-04-25T04:13:06.279Z,1001.17
2019-04-25T04:14:05.812Z,1001.17
2019-04-25T04:15:05.663Z,1001.12
2019-04-25T04:16:05.251Z,1001.15
2019-04-25T04:17:06.304Z,1001.18
2019-04-25T04:18:05.959Z,1001.19
2019-04-25T04:19:05.744Z,1001.22
2019-04-25T04:20:05.616Z,1001.16
2019-04-25T04:21:05.410Z,1001.17
2019-04-25T04:22:05.436Z,1001.16
2019-04-25T04:23:05.627Z,1001.15
2019-04-25T04:24:05.304Z,1001.17
2019-04-25T04:25:05.886Z,1001.15
2019-04-25T04:26:05.506Z,1001.23
2019-04-25T04:27:06.739Z,1001.19
2019-04-25T04:28:06.124Z,1001.21
2019-04-25T04:29:05.760Z,1001.18
2019-04-25T04:30:04.728Z,1001.24
2019-04-25T04:31:04.738Z,1001.22
2019-04-25T04:32:04.765Z,1001.22
2019-04-25T04:33:04.780Z,1001.22
2019-04-25T04:34:04.793Z,1001.27
2019-04-25T04:35:04.813Z,1001.28
2019-04-25T04:36:04.824Z,1001.26
2019-04-25T04:37:04.846Z,1001.25
2019-04-25T04:38:04.861Z,1001.28
2019-04-25T04:39:04.888Z,1001.27
2019-04-25T04:40:04.902Z,1001.31
2019-04-25T04:41:04.914Z,1001.33
2019-04-25T04:42:04.935Z,1001.31
2019-04-25T04:43:04.954Z,1001.29
2019-04-25T04:44:04.972Z,1001.31
2019-04-25T04:45:04.987Z,1001.28
2019-04-25T04:46:05.005Z,1001.25
2019-04-25T04:47:05.034Z,1001.26
2019-04-25T04:48:05.034Z,1001.28
2019-04-25T04:49:05.056Z,1001.23
2019-04-25T04:50:05.074Z,1001.26
2019-04-25T04:51:05.089Z,1001.27
2019-04-25T04:52:06.553Z,1001.27
2019-04-25T04:53:05.132Z,1001.28
2019-04-25T04:54:05.148Z,1001.34
2019-04-25T04:55:08.389Z,1001.33
2019-04-25T04:56:05.178Z,1001.32
2019-04-25T04:57:16.657Z,1001.34
2019-04-25T04:58:05.215Z,1001.29
2019-04-25T04:59:05.239Z,1001.25
2019-04-25T05:00:05.247Z,1001.24
2019-04-25T05:01:05.268Z,1001.20
2019-04-25T05:02:05.284Z,1001.21
2019-04-25T05:03:05.299Z,1001.23
2019-04-25T05:04:05.323Z,1001.26
2019-04-25T05:05:05.335Z,1001.27
2019-04-25T05:06:05.365Z,1001.27
2019-04-25T05:07:05.377Z,1001.31
2019-04-25T05:08:05.388Z,1001.33
2019-04-25T05:09:05.406Z,1001.36
2019-04-25T05:10:05.423Z,1001.37
2019-04-25T05:11:05.446Z,1001.37
2019-04-25T05:12:05.459Z,1001.39
2019-04-25T05:13:05.478Z,1001.40
2019-04-25T05:14:05.498Z,1001.44
2019-04-25T05:15:05.517Z,1001.43
2019-04-25T05:16:05.534Z,1001.42
2019-04-25T05:17:05.549Z,1001.40
2019-04-25T05:18:05.570Z,1001.41
2019-04-25T05:19:05.586Z,1001.44
2019-04-25T05:20:05.608Z,1001.43
2019-04-25T05:21:05.631Z,1001.41
2019-04-25T05:22:05.637Z,1001.45
2019-04-25T05:23:05.668Z,1001.41
2019-04-25T05:24:05.680Z,1001.38
2019-04-25T05:25:05.696Z,1001.42
2019-04-25T05:26:05.719Z,1001.41
2019-04-25T05:27:05.735Z,1001.38
2019-04-25T05:28:05.750Z,1001.42
2019-04-25T05:29:05.769Z,1001.42
2019-04-25T05:30:05.785Z,1001.37
2019-04-25T05:31:05.802Z,1001.39
2019-04-25T05:32:05.817Z,1001.36
2019-04-25T05:33:05.837Z,1001.38
2019-04-25T05:34:05.862Z,1001.33
2019-04-25T05:35:05.877Z,1001.32
2019-04-25T05:36:06.071Z,1001.31
2019-04-25T05:37:05.914Z,1001.30
2019-04-25T05:38:05.928Z,1001.32
2019-04-25T05:39:05.946Z,1001.37
2019-04-25T05:40:05.969Z,1001.38
2019-04-25T05:41:05.988Z,1001.45
2019-04-25T05:42:07.613Z,1001.46
2019-04-25T05:43:06.027Z,1001.47
2019-04-25T05:44:06.044Z,1001.51
2019-04-25T05:45:06.059Z,1001.53
2019-04-25T05:46:06.078Z,1001.51
2019-04-25T05:47:06.102Z,1001.51
2019-04-25T05:48:06.168Z,1001.52
2019-04-25T05:49:06.137Z,1001.47
2019-04-25T05:50:06.159Z,1001.49
2019-04-25T05:51:06.173Z,1001.51
2019-04-25T05:52:06.195Z,1001.52
2019-04-25T05:53:06.217Z,1001.52
2019-04-25T05:54:06.231Z,1001.54
2019-04-25T05:55:06.252Z,1001.55
2019-04-25T05:56:06.269Z,1001.62
2019-04-25T05:57:06.287Z,1001.64
2019-04-25T05:58:06.305Z,1001.65
2019-04-25T05:59:06.323Z,1001.70
2019-04-25T06:00:06.341Z,1001.71
2019-04-25T06:01:06.357Z,1001.72
2019-04-25T06:02:06.383Z,1001.74
2019-04-25T06:03:06.402Z,1001.74
2019-04-25T06:04:06.413Z,1001.77
2019-04-25T06:05:06.433Z,1001.81
2019-04-25T06:06:06.456Z,1001.79
2019-04-25T06:07:06.474Z,1001.78
2019-04-25T06:08:06.490Z,1001.75
2019-04-25T06:09:06.506Z,1001.80
2019-04-25T06:10:06.543Z,1001.83
2019-04-25T06:11:06.551Z,1001.87
2019-04-25T06:12:06.562Z,1001.87
2019-04-25T06:13:06.589Z,1001.89
2019-04-25T06:14:06.608Z,1001.88
2019-04-25T06:15:06.620Z,1001.86
2019-04-25T06:16:06.639Z,1001.88
2019-04-25T06:17:06.656Z,1001.92
2019-04-25T06:18:06.679Z,1001.92
2019-04-25T06:19:14.016Z,1001.92
2019-04-25T06:20:06.715Z,1001.91
2019-04-25T06:21:06.740Z,1001.94
2019-04-25T06:22:06.755Z,1001.95
2019-04-25T06:23:06.769Z,1001.94
2019-04-25T06:24:06.791Z,1001.96
2019-04-25T06:25:12.302Z,1001.95
2019-04-25T06:26:19.140Z,1001.93
2019-04-25T06:27:06.849Z,1001.94
2019-04-25T06:28:06.867Z,1001.85
2019-04-25T06:29:06.887Z,1001.81
2019-04-25T06:30:06.904Z,1001.80
2019-04-25T06:31:10.331Z,1001.79
2019-04-25T06:32:08.653Z,1001.75
2019-04-25T06:33:06.967Z,1001.72
2019-04-25T06:34:06.981Z,1001.71
2019-04-25T06:35:07.002Z,1001.76
2019-04-25T06:36:07.017Z,1001.75
2019-04-25T06:37:07.035Z,1001.72
2019-04-25T06:38:07.055Z,1001.79
2019-04-25T06:39:07.079Z,1001.85
2019-04-25T06:40:07.098Z,1001.91
2019-04-25T06:41:07.115Z,1001.97
2019-04-25T06:42:07.133Z,1002.03
2019-04-25T06:43:07.154Z,1001.98
2019-04-25T06:44:07.167Z,1002.08
2019-04-25T06:45:07.191Z,1002.07
2019-04-25T06:46:07.209Z,1002.07
2019-04-25T06:47:07.225Z,1002.12
2019-04-25T06:48:07.245Z,1002.06
2019-04-25T06:49:07.267Z,1002.04
2019-04-25T06:50:07.286Z,1002.04
2019-04-25T06:51:07.306Z,1002.05
2019-04-25T06:52:07.324Z,1002.03
2019-04-25T06:53:07.347Z,1002.07
2019-04-25T06:54:07.377Z,1002.10
2019-04-25T06:55:07.384Z,1002.03
2019-04-25T06:56:07.405Z,1002.06
2019-04-25T06:57:07.428Z,1002.06
2019-04-25T06:58:11.976Z,1002.05
2019-04-25T06:59:07.456Z,1002.08
2019-04-25T07:00:07.488Z,1002.04
2019-04-25T07:01:07.502Z,1002.09
2019-04-25T07:02:07.522Z,1002.13
2019-04-25T07:03:07.536Z,1002.16
2019-04-25T07:04:07.562Z,1002.20
2019-04-25T07:05:07.574Z,1002.19
2019-04-25T07:06:07.593Z,1002.18
2019-04-25T07:07:11.980Z,1002.20
2019-04-25T07:08:07.642Z,1002.10
2019-04-25T07:09:07.653Z,1002.13
2019-04-25T07:10:07.679Z,1002.14
2019-04-25T07:11:07.699Z,1002.11
2019-04-25T07:12:08.217Z,1002.10
2019-04-25T07:13:07.732Z,1002.12
2019-04-25T07:14:07.759Z,1002.09
2019-04-25T07:15:07.777Z,1002.05
2019-04-25T07:16:07.791Z,1002.09
2019-04-25T07:17:07.814Z,1002.13
2019-04-25T07:18:07.830Z,1002.03
2019-04-25T07:19:07.851Z,1002.11
2019-04-25T07:20:07.871Z,1002.13
2019-04-25T07:21:07.898Z,1002.09
2019-04-25T07:22:07.916Z,1002.10
2019-04-25T07:23:07.938Z,1002.08
2019-04-25T07:24:07.956Z,1002.14
2019-04-25T07:25:07.978Z,1002.17
2019-04-25T07:26:08.003Z,1002.16
2019-04-25T07:27:08.018Z,1002.14
2019-04-25T07:28:08.031Z,1002.14
2019-04-25T07:29:08.167Z,1002.18
2019-04-25T07:30:08.071Z,1002.15
2019-04-25T07:31:08.097Z,1002.20
2019-04-25T07:32:08.118Z,1002.20
2019-04-25T07:33:08.138Z,1002.11
2019-04-25T07:34:08.155Z,1002.06
2019-04-25T07:35:08.183Z,1002.13
2019-04-25T07:36:08.195Z,1002.06
2019-04-25T07:37:08.217Z,1002.05
2019-04-25T07:38:08.242Z,1002.03
2019-04-25T07:39:10.647Z,1001.98
2019-04-25T07:40:08.278Z,1002.01
2019-04-25T07:41:08.304Z,1001.94
2019-04-25T07:42:08.324Z,1002.00
2019-04-25T07:43:08.337Z,1002.04
2019-04-25T07:44:08.458Z,1002.04
2019-04-25T07:45:08.420Z,1002.05
2019-04-25T07:46:08.399Z,1002.09
2019-04-25T07:47:08.428Z,1002.04
2019-04-25T07:48:08.443Z,1002.01
2019-04-25T07:49:08.467Z,1002.16
2019-04-25T07:50:08.501Z,1002.16
2019-04-25T07:51:08.508Z,1002.26
2019-04-25T07:52:08.534Z,1002.21
2019-04-25T07:53:08.546Z,1002.28
2019-04-25T07:54:08.575Z,1002.24
2019-04-25T07:55:08.594Z,1002.25
2019-04-25T07:56:08.611Z,1002.30
2019-04-25T07:57:08.635Z,1002.32
2019-04-25T07:58:08.658Z,1002.36
2019-04-25T07:59:08.674Z,1002.38
2019-04-25T08:00:08.700Z,1002.44
2019-04-25T08:01:08.718Z,1002.50
2019-04-25T08:02:08.739Z,1002.53
2019-04-25T08:03:08.759Z,1002.56
2019-04-25T08:04:08.784Z,1002.53
2019-04-25T08:05:08.809Z,1002.55
2019-04-25T08:06:08.825Z,1002.58
2019-04-25T08:07:08.847Z,1002.50
2019-04-25T08:08:08.866Z,1002.51
2019-04-25T08:09:08.892Z,1002.42
2019-04-25T08:10:08.911Z,1002.46
2019-04-25T08:11:08.939Z,1002.38
2019-04-25T08:12:08.958Z,1002.48
2019-04-25T08:13:08.983Z,1002.41
2019-04-25T08:14:08.995Z,1002.44
2019-04-25T08:15:09.024Z,1002.42
2019-04-25T08:16:09.045Z,1002.45
2019-04-25T08:17:09.069Z,1002.42
2019-04-25T08:18:09.083Z,1002.44
2019-04-25T08:19:09.107Z,1002.30
2019-04-25T08:20:09.127Z,1002.40
2019-04-25T08:21:09.148Z,1002.40
2019-04-25T08:22:09.168Z,1002.52
2019-04-25T08:23:09.194Z,1002.47
2019-04-25T08:24:09.218Z,1002.45
2019-04-25T08:25:09.240Z,1002.45
2019-04-25T08:26:09.258Z,1002.55
2019-04-25T08:27:09.278Z,1002.52
2019-04-25T08:28:09.296Z,1002.55
2019-04-25T08:29:09.324Z,1002.48
2019-04-25T08:30:09.345Z,1002.50
2019-04-25T08:31:09.367Z,1002.46
2019-04-25T08:32:09.387Z,1002.47
2019-04-25T08:33:09.412Z,1002.48
2019-04-25T08:34:09.430Z,1002.51
2019-04-25T08:35:09.451Z,1002.55
2019-04-25T08:36:09.514Z,1002.56
2019-04-25T08:37:18.001Z,1002.57
2019-04-25T08:38:09.512Z,1002.59
2019-04-25T08:39:09.541Z,1002.62
2019-04-25T08:40:09.556Z,1002.65
2019-04-25T08:41:09.580Z,1002.65
2019-04-25T08:42:09.601Z,1002.74
2019-04-25T08:43:09.622Z,1002.71
2019-04-25T08:44:09.649Z,1002.75
2019-04-25T08:45:09.671Z,1002.84
2019-04-25T08:46:09.693Z,1002.82
2019-04-25T08:47:09.711Z,1002.81
2019-04-25T08:48:09.733Z,1002.72
2019-04-25T08:49:09.756Z,1002.79
2019-04-25T08:50:09.779Z,1002.76
2019-04-25T08:51:09.807Z,1002.69
2019-04-25T08:52:09.823Z,1002.64
2019-04-25T08:53:09.849Z,1002.72
2019-04-25T08:54:09.867Z,1002.77
2019-04-25T08:55:09.891Z,1002.70
2019-04-25T08:56:09.920Z,1002.73
2019-04-25T08:57:09.944Z,1002.71
2019-04-25T08:58:09.964Z,1002.76
2019-04-25T08:59:09.986Z,1002.70
2019-04-25T09:00:10.011Z,1002.69
2019-04-25T09:01:10.030Z,1002.65
2019-04-25T09:02:10.055Z,1002.64
2019-04-25T09:03:10.079Z,1002.76
2019-04-25T09:04:10.103Z,1002.76
2019-04-25T09:05:10.124Z,1002.76
2019-04-25T09:06:10.145Z,1002.81
2019-04-25T09:07:10.161Z,1002.85
2019-04-25T09:08:10.193Z,1002.73
2019-04-25T09:09:10.210Z,1002.78
2019-04-25T09:10:10.233Z,1002.75
2019-04-25T09:11:10.259Z,1002.85
2019-04-25T09:12:10.276Z,1002.85
2019-04-25T09:13:10.307Z,1002.79
2019-04-25T09:14:10.333Z,1002.64
2019-04-25T09:15:10.352Z,1002.78
2019-04-25T09:16:10.368Z,1002.79
2019-04-25T09:17:10.394Z,1002.78
2019-04-25T09:18:10.418Z,1002.81
2019-04-25T09:19:10.438Z,1002.83
2019-04-25T09:20:10.466Z,1002.87
2019-04-25T09:21:10.489Z,1002.88
2019-04-25T09:22:10.503Z,1002.92
2019-04-25T09:23:10.534Z,1002.92
2019-04-25T09:24:10.555Z,1002.88
2019-04-25T09:25:10.573Z,1002.86
2019-04-25T09:26:10.601Z,1002.84
2019-04-25T09:27:10.620Z,1002.82
2019-04-25T09:28:10.649Z,1002.78
2019-04-25T09:29:18.219Z,1002.89
2019-04-25T09:30:10.691Z,1002.96
2019-04-25T09:31:10.715Z,1002.95
2019-04-25T09:32:10.737Z,1002.99
2019-04-25T09:33:10.769Z,1003.01
2019-04-25T09:34:10.777Z,1003.00
2019-04-25T09:35:10.803Z,1003.01
2019-04-25T09:36:10.826Z,1003.03
2019-04-25T09:37:10.847Z,1003.03
2019-04-25T09:38:10.875Z,1003.01
2019-04-25T09:39:10.893Z,1003.04
2019-04-25T09:40:10.914Z,1002.94
2019-04-25T09:41:10.940Z,1002.95
2019-04-25T09:42:10.962Z,1003.05
2019-04-25T09:43:10.988Z,1003.03
2019-04-25T09:44:11.007Z,1002.96
2019-04-25T09:45:11.032Z,1002.98
2019-04-25T09:46:11.054Z,1003.04
2019-04-25T09:47:11.077Z,1002.99
2019-04-25T09:48:11.102Z,1002.91
2019-04-25T09:49:11.117Z,1003.01
2019-04-25T09:50:11.141Z,1003.05
2019-04-25T09:51:11.162Z,1002.99
2019-04-25T09:52:11.190Z,1003.03
2019-04-25T09:53:21.027Z,1003.04
2019-04-25T09:54:11.232Z,1003.00
2019-04-25T09:55:11.254Z,1003.02
2019-04-25T09:56:11.281Z,1002.83
2019-04-25T09:57:11.306Z,1002.88
2019-04-25T09:58:11.322Z,1002.94
2019-04-25T09:59:11.344Z,1002.94
2019-04-25T10:00:11.374Z,1002.94
2019-04-25T10:01:11.389Z,1002.94
2019-04-25T10:02:11.417Z,1003.00
2019-04-25T10:03:11.435Z,1002.91
2019-04-25T10:04:11.462Z,1002.83
2019-04-25T10:05:11.482Z,1002.93
2019-04-25T10:06:11.507Z,1002.84
2019-04-25T10:07:11.525Z,1002.92
2019-04-25T10:08:13.346Z,1002.95
2019-04-25T10:09:11.577Z,1002.99
2019-04-25T10:10:11.599Z,1003.04
2019-04-25T10:11:11.616Z,1002.99
2019-04-25T10:12:12.977Z,1002.99
2019-04-25T10:13:11.667Z,1002.89
2019-04-25T10:14:13.510Z,1002.98
2019-04-25T10:15:11.740Z,1002.95
2019-04-25T10:16:11.737Z,1002.99
2019-04-25T10:17:11.767Z,1002.96
2019-04-25T10:18:14.132Z,1002.91
2019-04-25T10:19:13.266Z,1002.95
2019-04-25T10:20:14.433Z,1002.92
2019-04-25T10:21:11.953Z,1002.91
2019-04-25T10:22:13.557Z,1002.88
2019-04-25T10:23:11.899Z,1002.95
2019-04-25T10:24:13.551Z,1002.87
2019-04-25T10:25:13.318Z,1002.92
2019-04-25T10:26:11.968Z,1002.95
2019-04-25T10:27:11.989Z,1002.92
2019-04-25T10:28:13.249Z,1002.94
2019-04-25T10:29:12.031Z,1002.90
2019-04-25T10:30:19.036Z,1002.92
2019-04-25T10:31:13.637Z,1002.90
2019-04-25T10:32:13.009Z,1002.94
2019-04-25T10:33:12.124Z,1003.03
2019-04-25T10:34:13.954Z,1003.02
2019-04-25T10:35:14.668Z,1003.07
2019-04-25T10:36:12.189Z,1003.03
2019-04-25T10:37:13.718Z,1003.06
2019-04-25T10:38:13.801Z,1003.06
2019-04-25T10:39:12.299Z,1003.16
2019-04-25T10:40:13.399Z,1003.14
2019-04-25T10:41:14.083Z,1003.11
2019-04-25T10:42:13.595Z,1003.09
2019-04-25T10:43:13.860Z,1003.06
2019-04-25T10:44:14.012Z,1003.05
2019-04-25T10:45:22.853Z,1003.01
2019-04-25T10:46:14.097Z,1003.03
2019-04-25T10:47:12.441Z,1003.10
2019-04-25T10:48:13.672Z,1003.11
2019-04-25T10:49:14.162Z,1003.08
2019-04-25T10:50:13.541Z,1003.03
2019-04-25T10:51:13.842Z,1003.02
2019-04-25T10:52:13.946Z,1003.02
2019-04-25T10:53:12.577Z,1003.00
2019-04-25T10:54:14.425Z,1003.02
2019-04-25T10:55:14.227Z,1003.01
2019-04-25T10:56:14.213Z,1002.97
2019-04-25T10:57:12.669Z,1002.99
2019-04-25T10:58:14.198Z,1002.93
2019-04-25T10:59:14.469Z,1002.83
2019-04-25T11:00:13.738Z,1002.76
2019-04-25T11:01:15.011Z,1002.82
2019-04-25T11:02:15.138Z,1002.79
2019-04-25T11:03:14.409Z,1002.76
2019-04-25T11:04:13.856Z,1002.74
2019-04-25T11:05:13.709Z,1002.75
2019-04-25T11:06:14.111Z,1002.71
2019-04-25T11:07:13.632Z,1002.71
2019-04-25T11:08:13.725Z,1002.69
2019-04-25T11:09:13.775Z,1002.64
2019-04-25T11:10:14.045Z,1002.62
2019-04-25T11:11:13.859Z,1002.40
2019-04-25T11:12:13.021Z,1002.54
2019-04-25T11:13:14.361Z,1002.51
2019-04-25T11:14:13.488Z,1002.55
2019-04-25T11:15:14.334Z,1002.54
2019-04-25T11:16:13.789Z,1002.52
2019-04-25T11:17:15.306Z,1002.50
2019-04-25T11:18:15.155Z,1002.52
2019-04-25T11:19:13.568Z,1002.54
2019-04-25T11:20:14.394Z,1002.47
2019-04-25T11:21:13.776Z,1002.47
2019-04-25T11:22:13.484Z,1002.49
2019-04-25T11:23:14.003Z,1002.52
2019-04-25T11:24:14.271Z,1002.46
2019-04-25T11:25:14.912Z,1002.45
2019-04-25T11:26:13.863Z,1002.49
2019-04-25T11:27:13.580Z,1002.42
2019-04-25T11:28:14.425Z,1002.42
2019-04-25T11:29:14.975Z,1002.47
2019-04-25T11:30:13.894Z,1002.39
2019-04-25T11:31:14.276Z,1002.24
2019-04-25T11:32:14.920Z,1002.32
2019-04-25T11:33:14.335Z,1002.29
2019-04-25T11:34:14.582Z,1002.19
2019-04-25T11:35:13.951Z,1002.35
2019-04-25T11:36:13.586Z,1002.24
2019-04-25T11:37:14.677Z,1002.27
2019-04-25T11:38:13.873Z,1002.29
2019-04-25T11:39:13.650Z,1002.25
2019-04-25T11:40:14.451Z,1002.32
2019-04-25T11:41:14.114Z,1002.17
2019-04-25T11:42:14.946Z,1002.26
2019-04-25T11:43:14.137Z,1002.21
2019-04-25T11:44:13.944Z,1002.19
2019-04-25T11:45:14.360Z,1002.25
2019-04-25T11:46:14.113Z,1002.23
2019-04-25T11:47:15.397Z,1002.18
2019-04-25T11:48:13.863Z,1002.20
2019-04-25T11:49:15.273Z,1002.23
2019-04-25T11:50:14.075Z,1002.22
2019-04-25T11:51:13.943Z,1002.22
2019-04-25T11:52:21.427Z,1002.21
2019-04-25T11:53:13.990Z,1002.11
2019-04-25T11:54:14.016Z,1002.18
2019-04-25T11:55:14.349Z,1002.16
2019-04-25T11:56:14.058Z,1002.17
2019-04-25T11:57:14.078Z,1002.15
2019-04-25T11:58:14.335Z,1002.21
2019-04-25T11:59:15.677Z,1002.11
2019-04-25T12:00:21.984Z,1002.17
2019-04-25T12:01:14.472Z,1002.12
2019-04-25T12:02:14.195Z,1002.16
2019-04-25T12:03:14.215Z,1002.16
2019-04-25T12:04:14.908Z,1002.22
2019-04-25T12:05:15.131Z,1002.17
2019-04-25T12:06:14.290Z,1002.23